Time;durP1;ratioP1;P1;durP2;ratioP2;P2;SDS_P1;SDS_P2;PMS_P1;PMS_P2;Temp;Humidity;BMP_temperature;BMP_pressure;BME280_temperature;BME280_humidity;BME280_pressure;Samples;Min_cycle;Max_cycle;Signal;HPM_P1;HPM_P2
2022/01/27 00:04:01;;;;;;;55.30;24.90;;;5.40;99.90;;;;;;5049694;28;20045;-64
2022/01/27 00:06:27;;;;;;;54.53;24.25;;;5.40;99.90;;;;;;5050178;28;20461;-64
2022/01/27 00:08:58;;;;;;;54.80;22.73;;;5.50;99.90;;;;;;5050150;28;20133;-64
2022/01/27 00:11:24;;;;;;;53.88;23.60;;;5.40;99.90;;;;;;5049961;28;20076;-65
2022/01/27 00:14:01;;;;;;;55.50;24.05;;;5.50;99.90;;;;;;5049430;28;20036;-64
2022/01/27 00:16:30;;;;;;;57.83;24.17;;;5.40;99.90;;;;;;5051607;28;20146;-64
2022/01/27 00:18:56;;;;;;;53.05;24.65;;;5.40;99.90;;;;;;5053572;28;20489;-64
2022/01/27 00:21:25;;;;;;;53.50;22.67;;;5.50;99.90;;;;;;5053382;28;20120;-64
2022/01/27 00:23:52;;;;;;;56.35;25.13;;;5.50;99.90;;;;;;5053007;28;20040;-64
2022/01/27 00:26:18;;;;;;;49.78;22.23;;;5.50;99.90;;;;;;5053290;28;20124;-64
2022/01/27 00:28:45;;;;;;;51.25;23.50;;;5.50;99.90;;;;;;5053104;28;20044;-64
2022/01/27 00:31:12;;;;;;;52.22;24.67;;;5.50;99.90;;;;;;5053199;28;20059;-64
2022/01/27 00:33:37;;;;;;;57.63;24.25;;;5.50;99.90;;;;;;5053074;28;20051;-64
2022/01/27 00:36:03;;;;;;;50.05;23.60;;;5.40;99.90;;;;;;5053229;28;20036;-64
2022/01/27 00:38:29;;;;;;;50.90;22.90;;;5.50;99.90;;;;;;5053186;28;20102;-64
2022/01/27 00:40:55;;;;;;;53.97;24.13;;;5.50;99.90;;;;;;5035405;28;20051;-64
2022/01/27 00:43:21;;;;;;;59.03;23.77;;;5.40;99.90;;;;;;5052931;28;20037;-64
2022/01/27 00:45:47;;;;;;;58.72;25.00;;;5.50;99.90;;;;;;5053284;28;20112;-64
2022/01/27 00:48:15;;;;;;;53.95;25.00;;;5.50;99.90;;;;;;5053149;28;20044;-64
2022/01/27 00:50:41;;;;;;;58.90;23.38;;;5.50;99.90;;;;;;5053103;28;20041;-64
2022/01/27 00:53:22;;;;;;;52.33;23.05;;;5.50;99.90;;;;;;5052243;28;20041;-64
2022/01/27 00:55:48;;;;;;;48.75;21.77;;;5.40;99.90;;;;;;5052593;28;20037;-64
2022/01/27 00:58:45;;;;;;;53.13;22.75;;;5.50;99.90;;;;;;5052874;28;20094;-64
2022/01/27 01:01:15;;;;;;;53.55;23.98;;;5.50;99.90;;;;;;5052929;28;20041;-64
2022/01/27 01:03:44;;;;;;;49.78;22.95;;;5.50;99.90;;;;;;5052291;28;20091;-64
2022/01/27 01:12:08;;;;;;;46.55;22.90;;;5.50;99.90;;;;;;5052434;28;20045;-64
2022/01/27 01:14:34;;;;;;;49.30;22.13;;;5.50;99.90;;;;;;5052113;28;20041;-64
2022/01/27 01:33:06;;;;;;;46.17;22.42;;;5.50;99.90;;;;;;5051712;28;20080;-64
2022/01/27 01:35:49;;;;;;;49.63;23.00;;;5.50;99.90;;;;;;5052375;28;20063;-64
2022/01/27 01:38:19;;;;;;;;;;;5.50;99.90;;;;;;5052618;28;20048;-64
2022/01/27 01:40:46;;;;;;;41.05;20.05;;;5.50;99.90;;;;;;5051717;28;19916;-64
2022/01/27 01:43:12;;;;;;;42.97;21.17;;;5.50;99.90;;;;;;5051420;28;20496;-64
2022/01/27 01:45:37;;;;;;;50.65;22.40;;;5.50;99.90;;;;;;5052057;28;20127;-64
2022/01/27 01:48:04;;;;;;;45.38;21.00;;;5.50;99.90;;;;;;5052077;28;20490;-64
2022/01/27 01:50:30;;;;;;;49.25;21.42;;;5.50;99.90;;;;;;5051812;28;20045;-63
2022/01/27 01:52:55;;;;;;;40.53;19.33;;;5.50;99.90;;;;;;5051427;28;20382;-64
2022/01/27 01:55:21;;;;;;;46.65;21.40;;;5.50;99.90;;;;;;5051793;28;20033;-64
2022/01/27 01:57:46;;;;;;;45.85;19.95;;;5.60;99.90;;;;;;5051546;28;20041;-63
2022/01/27 02:00:13;;;;;;;46.95;19.63;;;5.50;99.90;;;;;;5051873;28;20486;-64
2022/01/27 02:02:40;;;;;;;39.65;19.52;;;5.50;99.90;;;;;;5051076;28;20056;-64
2022/01/27 02:05:07;;;;;;;44.33;20.67;;;5.50;99.90;;;;;;5051513;28;20072;-64
2022/01/27 02:10:28;;;;;;;43.13;19.58;;;5.50;99.90;;;;;;5051775;28;20041;-64
2022/01/27 02:18:39;;;;;;;42.50;21.20;;;5.50;99.90;;;;;;5051433;28;20052;-63
2022/01/27 02:21:04;;;;;;;43.10;20.50;;;5.50;99.90;;;;;;5051514;28;20461;-64
2022/01/27 02:23:30;;;;;;;41.90;19.48;;;5.50;99.90;;;;;;5050697;28;20124;-63
2022/01/27 02:25:55;;;;;;;39.70;21.67;;;5.60;99.90;;;;;;5051136;28;20175;-64
2022/01/27 02:28:21;;;;;;;42.47;20.67;;;5.60;99.90;;;;;;5051001;28;20036;-64
2022/01/27 02:30:46;;;;;;;49.10;21.15;;;5.50;99.90;;;;;;5051068;28;20037;-65
2022/01/27 02:33:12;;;;;;;47.17;21.15;;;5.60;99.90;;;;;;5050840;28;20041;-64
2022/01/27 02:35:37;;;;;;;41.85;21.20;;;5.60;99.90;;;;;;5051091;28;20045;-64
2022/01/27 02:38:05;;;;;;;45.33;20.95;;;5.60;99.90;;;;;;5051227;28;20033;-64
2022/01/27 02:40:42;;;;;;;44.92;20.52;;;5.60;99.90;;;;;;5050764;28;20044;-64
2022/01/27 02:43:09;;;;;;;42.50;20.45;;;5.60;99.90;;;;;;5051122;28;20182;-63
2022/01/27 02:45:49;;;;;;;41.53;21.30;;;5.60;99.90;;;;;;5051188;28;20362;-64
2022/01/27 02:48:15;;;;;;;43.63;20.67;;;5.70;99.90;;;;;;5050873;28;20040;-64
2022/01/27 02:50:40;;;;;;;48.33;21.60;;;5.60;99.90;;;;;;5050653;28;20405;-64
2022/01/27 02:53:09;;;;;;;45.00;20.73;;;5.60;99.90;;;;;;5049983;28;20081;-64
2022/01/27 02:55:35;;;;;;;42.50;20.35;;;5.70;99.90;;;;;;5050207;28;20485;-64
2022/01/27 02:58:02;;;;;;;39.53;19.77;;;5.70;99.90;;;;;;5050732;28;20045;-64
2022/01/27 03:00:27;;;;;;;42.67;20.98;;;5.70;99.90;;;;;;5050859;28;20047;-64
2022/01/27 03:02:53;;;;;;;46.28;20.25;;;5.60;99.90;;;;;;5049855;28;20126;-64
2022/01/27 03:05:18;;;;;;;46.75;20.67;;;5.60;99.90;;;;;;5050566;28;20446;-64
2022/01/27 03:07:48;;;;;;;39.30;20.42;;;5.60;99.90;;;;;;5050409;28;20033;-64
2022/01/27 03:10:18;;;;;;;41.90;20.23;;;5.70;99.90;;;;;;5050427;28;20072;-63
2022/01/27 03:12:44;;;;;;;41.20;19.55;;;5.70;99.90;;;;;;5050177;28;20405;-64
2022/01/27 03:15:11;;;;;;;48.60;20.10;;;5.70;99.90;;;;;;5050527;28;20042;-64
2022/01/27 03:17:38;;;;;;;42.80;20.65;;;5.70;99.90;;;;;;5050443;28;20049;-64
2022/01/27 03:20:04;;;;;;;49.22;22.00;;;5.70;99.90;;;;;;5050421;28;20056;-64
2022/01/27 03:22:30;;;;;;;40.67;19.40;;;5.70;99.90;;;;;;5050167;28;20047;-64
2022/01/27 03:24:55;;;;;;;44.83;20.63;;;5.60;99.90;;;;;;5050255;28;20036;-64
2022/01/27 03:27:24;;;;;;;46.50;20.85;;;5.70;99.90;;;;;;5050175;28;20119;-64
2022/01/27 03:29:50;;;;;;;38.83;19.65;;;5.70;99.90;;;;;;5050440;28;20162;-64
2022/01/27 03:32:16;;;;;;;43.35;20.00;;;5.70;99.90;;;;;;5050087;28;20120;-64
2022/01/27 03:34:42;;;;;;;48.40;20.20;;;5.70;99.90;;;;;;5050067;28;20036;-64
2022/01/27 03:37:08;;;;;;;39.22;18.98;;;5.70;99.90;;;;;;5050332;28;20477;-64
2022/01/27 03:39:36;;;;;;;43.80;20.08;;;5.70;99.90;;;;;;5050369;28;20033;-64
2022/01/27 03:42:06;;;;;;;49.25;19.52;;;5.80;99.90;;;;;;5049953;28;20044;-64
2022/01/27 03:44:33;;;;;;;45.65;20.75;;;5.80;99.90;;;;;;5049965;28;20049;-64
2022/01/27 03:46:58;;;;;;;43.30;19.08;;;5.80;99.90;;;;;;5050120;28;20059;-64
2022/01/27 03:49:25;;;;;;;47.63;21.90;;;5.80;99.90;;;;;;5050297;28;20037;-64
2022/01/27 03:51:51;;;;;;;45.65;20.27;;;5.80;99.90;;;;;;5051863;28;20136;-64
2022/01/27 03:54:16;;;;;;;42.75;20.45;;;5.80;99.90;;;;;;5053313;28;20056;-64
2022/01/27 03:56:43;;;;;;;49.75;20.00;;;5.80;99.90;;;;;;5053980;28;20489;-64
2022/01/27 03:59:08;;;;;;;43.60;20.52;;;5.80;99.90;;;;;;5053862;28;20037;-64
2022/01/27 04:01:35;;;;;;;49.95;20.20;;;5.80;99.90;;;;;;5053279;28;20463;-64
2022/01/27 04:04:01;;;;;;;46.75;20.30;;;5.70;99.90;;;;;;5053288;28;20044;-64
2022/01/27 04:06:36;;;;;;;46.63;19.48;;;5.80;99.90;;;;;;5053732;28;20052;-64
2022/01/27 04:09:04;;;;;;;46.97;20.65;;;5.70;99.90;;;;;;5053505;28;20503;-64
2022/01/27 04:11:30;;;;;;;41.20;19.42;;;5.80;99.90;;;;;;5052990;28;20124;-64
2022/01/27 04:13:56;;;;;;;47.75;21.27;;;5.70;99.90;;;;;;5053042;28;20142;-64
2022/01/27 04:16:22;;;;;;;45.10;19.13;;;5.80;99.90;;;;;;5053634;28;20486;-64
2022/01/27 04:18:47;;;;;;;42.63;20.02;;;5.80;99.90;;;;;;5053493;28;20040;-64
2022/01/27 04:21:14;;;;;;;47.17;20.23;;;5.70;99.90;;;;;;5053381;28;20112;-64
2022/01/27 04:23:40;;;;;;;45.50;21.40;;;5.70;99.90;;;;;;5052776;28;20136;-64
2022/01/27 04:26:06;;;;;;;40.97;20.20;;;5.80;99.90;;;;;;5053394;28;20033;-64
2022/01/27 04:28:34;;;;;;;44.78;21.98;;;5.80;99.90;;;;;;5053407;28;20041;-64
2022/01/27 04:31:03;;;;;;;46.75;20.50;;;5.80;99.90;;;;;;5053487;28;20033;-64
2022/01/27 04:33:31;;;;;;;50.13;21.60;;;5.80;99.90;;;;;;5052857;28;20071;-64
2022/01/27 04:36:00;;;;;;;45.75;20.77;;;5.80;99.90;;;;;;5053269;28;20083;-64
2022/01/27 04:38:34;;;;;;;41.58;20.42;;;5.80;99.90;;;;;;5053066;28;20557;-64
2022/01/27 04:41:19;;;;;;;41.65;17.55;;;5.80;99.90;;;;;;5035251;28;20098;-64
2022/01/27 04:44:05;;;;;;;39.72;18.48;;;5.80;99.90;;;;;;5052834;28;20055;-64
2022/01/27 04:46:42;;;;;;;43.97;18.23;;;5.80;99.90;;;;;;5035165;28;20064;-64
2022/01/27 04:49:09;;;;;;;43.30;19.70;;;5.80;99.90;;;;;;5052841;28;20044;-64
2022/01/27 04:51:35;;;;;;;43.17;19.42;;;5.80;99.90;;;;;;5052913;28;20120;-64
2022/01/27 04:54:28;;;;;;;37.60;19.63;;;5.80;99.90;;;;;;5051734;28;20422;-64
2022/01/27 04:56:46;;;;;;;40.22;19.45;;;5.90;99.90;;;;;;5052474;28;20572;-64
2022/01/27 04:59:22;;;;;;;43.17;19.25;;;5.90;99.90;;;;;;5052841;28;20045;-64
2022/01/27 05:01:57;;;;;;;41.05;19.23;;;5.90;99.90;;;;;;5051773;28;20068;-64
2022/01/27 05:04:29;;;;;;;45.38;18.67;;;5.90;99.90;;;;;;5052001;28;20127;-64
2022/01/27 05:06:54;;;;;;;41.00;19.40;;;5.90;99.90;;;;;;5052679;28;20052;-64
2022/01/27 05:09:20;;;;;;;42.17;18.20;;;5.90;99.90;;;;;;5052616;28;20037;-64
2022/01/27 05:12:00;;;;;;;41.30;18.45;;;5.90;99.90;;;;;;5052083;28;20041;-65
2022/01/27 05:14:26;;;;;;;45.97;19.38;;;5.90;99.90;;;;;;5052252;28;20049;-64
2022/01/27 05:16:53;;;;;;;43.53;19.20;;;6.00;99.90;;;;;;5034784;28;20120;-64
2022/01/27 05:19:19;;;;;;;44.88;18.50;;;5.90;99.90;;;;;;5052539;28;20424;-64
2022/01/27 05:21:44;;;;;;;43.97;18.00;;;5.90;99.90;;;;;;5052048;28;20047;-64
2022/01/27 05:24:11;;;;;;;43.88;18.55;;;6.00;99.90;;;;;;5052150;28;20047;-64
2022/01/27 05:26:38;;;;;;;40.38;17.33;;;5.90;99.90;;;;;;5052247;28;20040;-64
2022/01/27 05:29:05;;;;;;;39.10;17.33;;;6.00;99.90;;;;;;5052184;28;20037;-64
2022/01/27 05:31:31;;;;;;;38.60;17.90;;;6.00;99.90;;;;;;5052189;28;20044;-64
2022/01/27 05:33:57;;;;;;;48.67;18.33;;;6.00;99.90;;;;;;5051527;28;20036;-64
2022/01/27 05:36:22;;;;;;;41.15;16.98;;;6.00;99.90;;;;;;5052243;28;20063;-64
2022/01/27 05:38:48;;;;;;;43.47;18.95;;;6.00;99.90;;;;;;5051932;28;20111;-64
2022/01/27 05:41:15;;;;;;;43.00;18.23;;;6.00;99.90;;;;;;5052356;28;20056;-64
2022/01/27 05:43:41;;;;;;;39.08;17.13;;;6.00;99.90;;;;;;5051721;28;20065;-64
2022/01/27 05:46:07;;;;;;;47.75;19.30;;;6.10;99.90;;;;;;5052177;28;20091;-64
2022/01/27 05:48:32;;;;;;;45.45;19.25;;;6.10;99.90;;;;;;5052035;28;20482;-64
2022/01/27 05:50:58;;;;;;;37.47;16.60;;;6.10;99.90;;;;;;5051953;28;20408;-64
2022/01/27 05:53:25;;;;;;;37.55;16.55;;;6.10;99.90;;;;;;5050816;28;20423;-64
2022/01/27 05:55:51;;;;;;;34.15;18.00;;;6.10;99.90;;;;;;5051932;28;20051;-64
2022/01/27 05:58:16;;;;;;;39.83;17.88;;;6.10;99.90;;;;;;5051773;28;20119;-64
2022/01/27 06:00:42;;;;;;;40.75;18.27;;;6.10;99.90;;;;;;5051762;28;20045;-64
2022/01/27 06:03:08;;;;;;;40.10;16.88;;;6.10;99.90;;;;;;5050784;28;20476;-64
2022/01/27 06:05:33;;;;;;;49.42;19.67;;;6.10;99.90;;;;;;5051419;28;20044;-64
2022/01/27 06:07:59;;;;;;;40.22;16.60;;;6.10;99.90;;;;;;5051542;28;20041;-64
2022/01/27 06:10:25;;;;;;;34.78;17.13;;;6.10;99.90;;;;;;5051555;28;20044;-64
2022/01/27 06:12:53;;;;;;;42.78;17.75;;;6.10;99.90;;;;;;5033133;28;20070;-64
2022/01/27 06:15:20;;;;;;;39.60;18.30;;;6.10;99.90;;;;;;5050880;28;20045;-64
2022/01/27 06:17:47;;;;;;;40.28;18.25;;;6.10;99.90;;;;;;5051380;28;20049;-64
2022/01/27 06:20:13;;;;;;;38.03;17.45;;;6.10;99.90;;;;;;5051426;28;20044;-64
2022/01/27 06:22:39;;;;;;;40.45;17.40;;;6.10;99.90;;;;;;5051079;28;20036;-64
2022/01/27 06:25:05;;;;;;;34.60;17.25;;;6.10;99.90;;;;;;5050978;28;20033;-64
2022/01/27 06:27:31;;;;;;;52.13;19.38;;;6.00;99.90;;;;;;5051109;28;20430;-64
2022/01/27 06:29:57;;;;;;;42.15;18.33;;;6.00;99.90;;;;;;5051001;28;20177;-64
2022/01/27 06:32:22;;;;;;;42.30;18.08;;;6.00;99.90;;;;;;5050594;28;20094;-64
2022/01/27 06:34:48;;;;;;;41.80;19.20;;;6.00;99.90;;;;;;5051134;28;20102;-64
2022/01/27 06:37:13;;;;;;;43.15;18.45;;;6.00;99.90;;;;;;5051157;28;20052;-65
2022/01/27 06:39:39;;;;;;;37.50;16.92;;;6.00;99.90;;;;;;5050981;28;20033;-64
2022/01/27 06:42:07;;;;;;;40.78;17.65;;;5.90;99.90;;;;;;5050710;28;20037;-64
2022/01/27 06:44:33;;;;;;;41.13;18.30;;;6.00;99.90;;;;;;5050865;28;20400;-64
2022/01/27 06:46:59;;;;;;;41.97;18.45;;;6.00;99.90;;;;;;5050740;28;20467;-64
2022/01/27 06:49:25;;;;;;;43.83;18.58;;;5.90;99.90;;;;;;5050915;28;20048;-64
2022/01/27 06:51:50;;;;;;;42.83;17.35;;;5.90;99.90;;;;;;5065496;28;20499;-64
2022/01/27 06:54:17;;;;;;;37.17;17.02;;;5.90;99.90;;;;;;5070341;28;20028;-64
2022/01/27 06:56:43;;;;;;;42.53;19.15;;;5.90;99.90;;;;;;5070766;28;20041;-64
2022/01/27 06:59:08;;;;;;;41.83;18.17;;;5.90;99.90;;;;;;5070564;28;20036;-64
2022/01/27 07:01:34;;;;;;;32.80;16.02;;;6.00;99.90;;;;;;5069806;28;20044;-64
2022/01/27 07:04:01;;;;;;;40.75;17.75;;;5.90;99.90;;;;;;5070366;28;20040;-64
2022/01/27 07:06:27;;;;;;;37.60;17.40;;;5.90;99.90;;;;;;5070671;28;20147;-64
2022/01/27 07:08:52;;;;;;;34.55;16.33;;;5.90;99.90;;;;;;5036022;28;20205;-64
2022/01/27 07:11:18;;;;;;;37.17;16.67;;;6.00;99.90;;;;;;5070579;28;20033;-64
2022/01/27 07:13:44;;;;;;;45.63;17.98;;;6.00;99.90;;;;;;5070110;28;20167;-64
2022/01/27 07:16:10;;;;;;;35.97;17.15;;;6.00;99.90;;;;;;5070708;28;20040;-64
2022/01/27 07:18:36;;;;;;;31.38;14.98;;;6.00;99.90;;;;;;5070874;28;20461;-64
2022/01/27 07:21:03;;;;;;;36.50;16.92;;;6.00;99.90;;;;;;5070497;28;20075;-64
2022/01/27 07:23:29;;;;;;;38.40;15.68;;;6.00;99.90;;;;;;5070385;28;20119;-65
2022/01/27 07:25:55;;;;;;;35.13;15.77;;;6.00;99.90;;;;;;5071294;28;20512;-65
2022/01/27 07:28:20;;;;;;;32.50;16.23;;;6.10;99.90;;;;;;5074428;28;20046;-66
2022/01/27 07:30:46;;;;;;;33.50;15.50;;;6.10;99.90;;;;;;5074745;28;20128;-65
2022/01/27 07:33:11;;;;;;;34.53;14.82;;;6.10;99.90;;;;;;5074008;28;20036;-65
2022/01/27 07:35:37;;;;;;;32.22;14.75;;;6.00;99.90;;;;;;5056488;28;20044;-65
2022/01/27 07:38:04;;;;;;;34.72;15.82;;;6.10;99.90;;;;;;5074486;28;20037;-65
2022/01/27 07:40:30;;;;;;;25.08;13.55;;;6.10;99.90;;;;;;5074539;28;20443;-65
2022/01/27 07:42:56;;;;;;;28.55;15.00;;;6.10;99.90;;;;;;5074121;28;20123;-65
2022/01/27 07:45:21;;;;;;;27.67;13.98;;;6.10;99.90;;;;;;5074717;28;20048;-65
2022/01/27 07:47:47;;;;;;;28.80;13.55;;;6.10;99.90;;;;;;5072126;28;20041;-65
2022/01/27 07:50:12;;;;;;;24.35;12.80;;;6.20;99.90;;;;;;5076918;28;20523;-66
2022/01/27 07:52:38;;;;;;;25.98;12.60;;;6.10;99.90;;;;;;5071793;28;20044;-65
2022/01/27 07:55:04;;;;;;;22.90;12.38;;;6.10;99.90;;;;;;5070922;28;20114;-65
2022/01/27 07:57:29;;;;;;;22.65;11.68;;;6.20;99.90;;;;;;5072548;28;20485;-65
2022/01/27 07:59:55;;;;;;;22.50;11.18;;;6.20;99.90;;;;;;5074710;28;20037;-65
2022/01/27 08:02:20;;;;;;;27.02;11.68;;;6.20;99.90;;;;;;5073541;28;20043;-65
2022/01/27 08:04:46;;;;;;;18.35;10.00;;;6.20;99.90;;;;;;5072800;28;20045;-65
2022/01/27 08:07:12;;;;;;;21.30;10.35;;;6.20;99.90;;;;;;5073743;28;20036;-65
2022/01/27 08:09:39;;;;;;;21.27;11.88;;;6.20;99.90;;;;;;5073560;28;20555;-65
2022/01/27 08:12:05;;;;;;;23.30;11.15;;;6.30;99.90;;;;;;5073280;28;20373;-65
2022/01/27 08:14:30;;;;;;;22.13;11.75;;;6.30;99.90;;;;;;5073469;28;20097;-65
2022/01/27 08:16:56;;;;;;;22.88;11.75;;;6.30;99.90;;;;;;5074043;28;20116;-64
2022/01/27 08:19:21;;;;;;;22.58;12.75;;;6.30;99.90;;;;;;5074012;28;20043;-65
2022/01/27 08:21:47;;;;;;;26.27;13.52;;;6.30;99.90;;;;;;5072880;28;20059;-64
2022/01/27 08:24:14;;;;;;;22.27;12.38;;;6.40;99.90;;;;;;5074017;28;20075;-64
2022/01/27 08:26:44;;;;;;;27.27;12.77;;;6.40;99.90;;;;;;5073371;28;20049;-64
2022/01/27 08:29:21;;;;;;;28.13;13.68;;;6.40;99.90;;;;;;5073562;28;20040;-64
2022/01/27 08:31:57;;;;;;;26.40;12.80;;;6.40;99.90;;;;;;5072607;28;20125;-65
2022/01/27 08:34:36;;;;;;;26.90;13.07;;;6.40;99.90;;;;;;5073948;28;20345;-64
2022/01/27 08:37:05;;;;;;;31.70;14.63;;;6.50;99.90;;;;;;5072296;28;20029;-64
2022/01/27 08:39:31;;;;;;;31.67;13.68;;;6.40;99.90;;;;;;5073544;28;20041;-65
2022/01/27 08:41:57;;;;;;;34.42;15.73;;;6.50;99.90;;;;;;5073639;28;20217;-64
2022/01/27 08:44:23;;;;;;;36.03;14.70;;;6.60;99.90;;;;;;5073808;28;20565;-64
2022/01/27 08:46:49;;;;;;;35.72;15.77;;;6.50;99.90;;;;;;5073146;28;20040;-64
2022/01/27 08:49:14;;;;;;;41.47;15.95;;;6.50;99.90;;;;;;5061569;28;20043;-64
2022/01/27 08:51:40;;;;;;;33.78;15.60;;;6.50;99.90;;;;;;5086835;28;20454;-64
2022/01/27 08:54:06;;;;;;;31.10;13.98;;;6.60;99.90;;;;;;5093526;28;20039;-64
2022/01/27 08:56:32;;;;;;;40.47;15.60;;;6.60;99.90;;;;;;5092473;28;20075;-64
2022/01/27 08:58:57;;;;;;;36.65;14.93;;;6.60;99.90;;;;;;5078727;28;20032;-64
2022/01/27 09:01:25;;;;;;;40.85;14.85;;;6.70;99.90;;;;;;5067742;28;20045;-65
2022/01/27 09:03:51;;;;;;;38.67;14.25;;;6.60;99.90;;;;;;5065025;28;20040;-64
2022/01/27 09:06:20;;;;;;;34.50;14.63;;;6.70;99.90;;;;;;5071877;28;20048;-64
2022/01/27 09:08:47;;;;;;;34.45;13.60;;;6.70;99.90;;;;;;5072139;28;20051;-64
2022/01/27 09:11:13;;;;;;;35.70;12.90;;;6.70;99.90;;;;;;5077900;28;20048;-64
2022/01/27 09:13:39;;;;;;;41.90;14.00;;;6.80;99.90;;;;;;5092221;28;20483;-65
2022/01/27 09:16:06;;;;;;;39.92;13.07;;;6.80;99.90;;;;;;5092760;28;20044;-64
2022/01/27 09:18:32;;;;;;;40.67;12.98;;;6.90;99.90;;;;;;5092821;28;20036;-65
2022/01/27 09:21:01;;;;;;;38.13;12.65;;;6.90;99.90;;;;;;5092680;28;20446;-64
2022/01/27 09:23:27;;;;;;;41.95;12.32;;;7.00;99.90;;;;;;5092611;28;20081;-65
2022/01/27 09:25:56;;;;;;;43.80;12.20;;;7.00;99.90;;;;;;5077817;28;20040;-64
2022/01/27 09:28:22;;;;;;;34.00;11.77;;;7.00;99.90;;;;;;5072254;28;20052;-64
2022/01/27 09:30:48;;;;;;;31.20;11.95;;;7.10;99.90;;;;;;5072329;28;20048;-64
2022/01/27 09:33:13;;;;;;;32.35;11.57;;;7.10;99.90;;;;;;5076652;28;20040;-64
2022/01/27 09:35:39;;;;;;;36.90;11.23;;;7.10;99.90;;;;;;5082867;28;20166;-64
2022/01/27 09:38:05;;;;;;;31.70;12.90;;;7.20;99.90;;;;;;5078314;28;20040;-64
2022/01/27 09:40:33;;;;;;;33.92;11.60;;;7.20;99.90;;;;;;5092326;28;20044;-64
2022/01/27 09:43:00;;;;;;;35.30;10.90;;;7.20;99.90;;;;;;5085954;28;20044;-64
2022/01/27 09:45:28;;;;;;;37.03;10.85;;;7.20;99.90;;;;;;5077830;28;20068;-64
2022/01/27 09:48:02;;;;;;;29.60;11.65;;;7.30;99.90;;;;;;5071885;28;20044;-64
2022/01/27 09:50:48;;;;;;;35.70;11.50;;;7.30;99.90;;;;;;5071785;28;20048;-64
2022/01/27 09:53:15;;;;;;;32.30;10.43;;;7.30;99.90;;;;;;5071530;28;20048;-64
2022/01/27 09:55:42;;;;;;;32.38;10.35;;;7.40;99.90;;;;;;5072071;28;20400;-64
2022/01/27 09:58:08;;;;;;;31.02;10.18;;;7.40;99.90;;;;;;5071715;28;20040;-64
2022/01/27 10:00:34;;;;;;;30.02;10.30;;;7.50;99.90;;;;;;5071666;28;20040;-64
2022/01/27 10:03:06;;;;;;;31.88;9.38;;;7.50;99.90;;;;;;5071693;28;20123;-64
2022/01/27 10:05:32;;;;;;;;;;;7.50;99.90;;;;;;5072422;28;20047;-64
2022/01/27 10:08:23;;;;;;;23.95;8.93;;;7.60;99.90;;;;;;5071771;28;19916;-64
2022/01/27 10:10:51;;;;;;;37.00;9.88;;;7.60;99.90;;;;;;5071383;28;20036;-64
2022/01/27 10:13:40;;;;;;;25.05;9.35;;;7.60;99.90;;;;;;5071192;28;20048;-64
2022/01/27 10:16:09;;;;;;;26.50;11.57;;;7.60;99.90;;;;;;5071178;28;20546;-65
2022/01/27 10:18:40;;;;;;;29.40;9.35;;;7.70;99.90;;;;;;5071593;28;20040;-64
2022/01/27 10:21:08;;;;;;;26.83;10.90;;;7.70;99.90;;;;;;5071165;28;20116;-65
2022/01/27 10:23:39;;;;;;;23.42;10.07;;;7.70;99.90;;;;;;5070944;28;20048;-64
2022/01/27 10:26:14;;;;;;;22.42;8.70;;;7.70;99.90;;;;;;5071452;28;20396;-64
2022/01/27 10:31:46;;;;;;;23.52;8.85;;;7.70;99.90;;;;;;4969662;28;20073;-64
2022/01/27 10:34:13;;;;;;;24.20;8.85;;;7.80;99.90;;;;;;4969624;28;20488;-65
2022/01/27 10:36:40;;;;;;;33.53;10.93;;;7.70;99.90;;;;;;5016912;28;20509;-65
2022/01/27 10:39:08;;;;;;;39.78;12.95;;;7.80;99.90;;;;;;5071249;28;20044;-64
2022/01/27 10:41:36;;;;;;;23.77;8.73;;;7.80;99.90;;;;;;5070222;28;20029;-64
2022/01/27 10:44:13;;;;;;;31.65;10.15;;;7.80;99.90;;;;;;5070570;28;20111;-65
2022/01/27 10:47:05;;;;;;;31.52;11.10;;;7.90;99.90;;;;;;5049283;28;20041;-65
2022/01/27 10:49:34;;;;;;;30.65;9.68;;;7.90;99.90;;;;;;5048163;28;20052;-65
2022/01/27 10:52:00;;;;;;;29.25;9.07;;;7.90;99.90;;;;;;5050147;28;20037;-65
2022/01/27 10:54:37;;;;;;;26.10;8.13;;;7.90;99.90;;;;;;5050300;28;20043;-65
2022/01/27 10:57:05;;;;;;;29.42;8.85;;;7.90;99.90;;;;;;5050756;28;20033;-65
2022/01/27 10:59:33;;;;;;;25.88;10.35;;;7.90;99.90;;;;;;5050410;28;20029;-65
2022/01/27 11:02:03;;;;;;;29.20;8.95;;;7.90;99.90;;;;;;5050647;28;20045;-65
2022/01/27 11:04:39;;;;;;;20.55;8.95;;;8.00;99.90;;;;;;5050587;28;20112;-65
2022/01/27 11:07:08;;;;;;;31.00;8.98;;;7.90;99.90;;;;;;5050593;28;20041;-65
2022/01/27 11:09:37;;;;;;;24.83;7.93;;;7.90;99.90;;;;;;5050426;28;20159;-65
2022/01/27 11:12:15;;;;;;;22.05;6.88;;;8.00;99.90;;;;;;5065553;28;20076;-65
2022/01/27 11:14:41;;;;;;;17.55;7.35;;;7.90;99.90;;;;;;5050980;28;20512;-65
2022/01/27 11:17:10;;;;;;;20.92;8.05;;;8.00;99.90;;;;;;5051026;28;20052;-65
2022/01/27 11:19:57;;;;;;;23.70;8.18;;;7.90;99.90;;;;;;5051010;28;20052;-65
2022/01/27 11:25:49;;;;;;;28.95;8.38;;;8.10;99.90;;;;;;5067169;28;20055;-65
2022/01/27 11:27:54;;;;;;;22.58;7.07;;;8.10;99.90;;;;;;5049973;28;20132;-65
2022/01/27 11:30:41;;;;;;;21.80;6.95;;;8.20;99.90;;;;;;5050426;28;20052;-65
2022/01/27 11:33:09;;;;;;;23.00;7.72;;;8.20;99.90;;;;;;5049588;28;20049;-65
2022/01/27 11:35:35;;;;;;;19.25;7.53;;;8.30;99.90;;;;;;5050382;28;20040;-65
2022/01/27 11:38:04;;;;;;;25.05;7.03;;;8.30;99.90;;;;;;5050249;28;20163;-65
2022/01/27 11:40:46;;;;;;;31.23;8.63;;;8.30;99.90;;;;;;5050048;28;20056;-65
2022/01/27 11:43:17;;;;;;;18.88;6.70;;;8.40;99.90;;;;;;5050065;28;20049;-65
2022/01/27 11:45:49;;;;;;;16.70;5.25;;;8.40;99.90;;;;;;5050764;28;20041;-65
2022/01/27 11:48:22;;;;;;;26.40;5.68;;;8.40;99.90;;;;;;5050428;28;20052;-65
2022/01/27 11:50:59;;;;;;;17.63;6.50;;;8.40;99.90;;;;;;5050349;28;20049;-65
2022/01/27 11:53:42;;;;;;;15.30;5.22;;;8.50;99.90;;;;;;5049804;28;20049;-65
2022/01/27 11:56:23;;;;;;;20.42;5.05;;;8.50;99.90;;;;;;5050375;28;20029;-65
2022/01/27 11:58:50;;;;;;;17.10;5.55;;;8.50;99.90;;;;;;5050237;28;20041;-65
2022/01/27 12:01:34;;;;;;;31.63;6.15;;;8.60;99.90;;;;;;5050375;28;20041;-65
2022/01/27 12:04:04;;;;;;;16.33;4.90;;;8.60;99.90;;;;;;5049820;28;20072;-65
2022/01/27 12:06:32;;;;;;;19.23;6.60;;;8.60;99.90;;;;;;5050277;28;20037;-65
2022/01/27 12:09:19;;;;;;;15.10;5.30;;;8.60;99.90;;;;;;5049931;28;20401;-65
2022/01/27 12:11:57;;;;;;;18.17;4.78;;;8.60;99.90;;;;;;5032422;28;20136;-65
2022/01/27 12:14:33;;;;;;;18.38;5.75;;;8.70;99.90;;;;;;5053585;28;20040;-64
2022/01/27 12:17:10;;;;;;;18.58;5.05;;;8.80;99.90;;;;;;5054286;28;20037;-63
2022/01/27 12:20:04;;;;;;;20.88;7.47;;;8.80;99.90;;;;;;5054036;28;20166;-64
2022/01/27 12:22:43;;;;;;;23.42;4.38;;;8.80;99.90;;;;;;5053723;28;20041;-64
2022/01/27 12:25:10;;;;;;;14.35;4.45;;;8.80;99.90;;;;;;5053659;28;20572;-65
2022/01/27 12:27:36;;;;;;;15.20;3.60;;;8.90;99.90;;;;;;5053335;28;20041;-66
2022/01/27 12:30:06;;;;;;;16.33;3.85;;;8.90;99.90;;;;;;5053795;28;20041;-65
2022/01/27 12:32:32;;;;;;;15.40;3.30;;;9.00;99.90;;;;;;5053548;28;20094;-66
2022/01/27 12:35:01;;;;;;;16.95;4.53;;;9.00;99.90;;;;;;5053665;28;20048;-65
2022/01/27 12:37:34;;;;;;;14.02;3.55;;;9.00;99.90;;;;;;5053401;28;20041;-65
2022/01/27 12:40:06;;;;;;;17.35;4.05;;;8.90;99.90;;;;;;5053356;28;20072;-65
2022/01/27 12:42:37;;;;;;;23.95;4.88;;;8.90;99.90;;;;;;5052977;28;20523;-65
2022/01/27 12:45:06;;;;;;;17.05;4.68;;;9.00;99.90;;;;;;5068741;28;20111;-65
2022/01/27 12:47:32;;;;;;;18.60;5.10;;;9.00;99.90;;;;;;5073489;28;20067;-65
2022/01/27 12:50:05;;;;;;;18.23;4.53;;;9.00;99.90;;;;;;5073417;28;20041;-65
2022/01/27 12:52:36;;;;;;;14.05;3.28;;;9.10;99.90;;;;;;5073163;28;20043;-64
2022/01/27 12:55:03;;;;;;;15.65;3.47;;;9.10;99.90;;;;;;5073210;28;20041;-66
2022/01/27 12:57:30;;;;;;;16.10;4.10;;;9.10;99.90;;;;;;5072953;28;20553;-64
2022/01/27 12:59:57;;;;;;;15.65;3.65;;;9.10;99.90;;;;;;5072807;28;20043;-64
2022/01/27 13:02:25;;;;;;;16.60;2.72;;;9.10;99.90;;;;;;5072024;28;20033;-65
2022/01/27 13:04:56;;;;;;;19.50;3.88;;;9.10;99.90;;;;;;5073005;28;20404;-65
2022/01/27 13:07:23;;;;;;;19.50;4.47;;;9.10;99.90;;;;;;5072952;28;20076;-65
2022/01/27 13:10:09;;;;;;;14.60;4.10;;;9.10;99.90;;;;;;5073092;28;20044;-65
2022/01/27 13:12:48;;;;;;;60.75;8.98;;;9.10;99.90;;;;;;5072384;28;20049;-67
2022/01/27 13:15:22;;;;;;;20.45;3.88;;;9.20;99.90;;;;;;5054858;28;20055;-64
2022/01/27 13:17:53;;;;;;;52.42;8.95;;;9.10;99.90;;;;;;5072344;28;20116;-64
2022/01/27 13:20:34;;;;;;;31.25;5.22;;;9.30;99.90;;;;;;5073029;28;20067;-64
2022/01/27 13:23:13;;;;;;;24.73;4.68;;;9.20;99.90;;;;;;5071991;28;20043;-64
2022/01/27 13:25:45;;;;;;;22.13;3.47;;;9.20;99.90;;;;;;5072378;28;20040;-64
2022/01/27 13:28:14;;;;;;;19.83;3.70;;;9.20;99.90;;;;;;5072615;28;20040;-65